sensor_id;sensor_type;location;lat;lon;timestamp;P1;durP1;ratioP1;P2;durP2;ratioP2
3667;SDS011;24099;47.102;15.440;2023-02-28T00:01:56;1.13;;;1.02;;
3667;SDS011;24099;47.102;15.440;2023-02-28T00:04:26;1.48;;;1.17;;
3667;SDS011;24099;47.102;15.440;2023-02-28T00:06:54;1.35;;;1.25;;
3667;SDS011;24099;47.102;15.440;2023-02-28T00:09:21;1.70;;;1.60;;
3667;SDS011;24099;47.102;15.440;2023-02-28T00:11:51;1.30;;;1.13;;
3667;SDS011;24099;47.102;15.440;2023-02-28T00:14:21;2.40;;;1.00;;
3667;SDS011;24099;47.102;15.440;2023-02-28T00:16:49;2.03;;;1.67;;
3667;SDS011;24099;47.102;15.440;2023-02-28T00:19:17;1.75;;;1.20;;
3667;SDS011;24099;47.102;15.440;2023-02-28T00:21:48;1.25;;;1.15;;
3667;SDS011;24099;47.102;15.440;2023-02-28T00:24:16;12.50;;;1.52;;
3667;SDS011;24099;47.102;15.440;2023-02-28T00:26:43;2.40;;;1.15;;
3667;SDS011;24099;47.102;15.440;2023-02-28T00:29:11;1.20;;;1.10;;
3667;SDS011;24099;47.102;15.440;2023-02-28T00:31:40;1.30;;;1.10;;
3667;SDS011;24099;47.102;15.440;2023-02-28T00:34:32;1.83;;;1.00;;
3667;SDS011;24099;47.102;15.440;2023-02-28T00:37:08;1.00;;;0.98;;
3667;SDS011;24099;47.102;15.440;2023-02-28T00:39:38;1.35;;;1.17;;
3667;SDS011;24099;47.102;15.440;2023-02-28T00:42:08;1.08;;;0.98;;
3667;SDS011;24099;47.102;15.440;2023-02-28T00:44:36;1.70;;;1.40;;
3667;SDS011;24099;47.102;15.440;2023-02-28T00:47:05;1.13;;;1.10;;
3667;SDS011;24099;47.102;15.440;2023-02-28T00:49:33;0.73;;;0.73;;
3667;SDS011;24099;47.102;15.440;2023-02-28T00:52:01;0.80;;;0.80;;
3667;SDS011;24099;47.102;15.440;2023-02-28T00:54:33;1.10;;;1.00;;
3667;SDS011;24099;47.102;15.440;2023-02-28T00:57:01;1.83;;;1.00;;
3667;SDS011;24099;47.102;15.440;2023-02-28T00:59:31;1.20;;;1.10;;
3667;SDS011;24099;47.102;15.440;2023-02-28T01:01:59;2.40;;;1.58;;
3667;SDS011;24099;47.102;15.440;2023-02-28T01:07:00;1.05;;;1.05;;
3667;SDS011;24099;47.102;15.440;2023-02-28T01:09:28;2.33;;;1.17;;
3667;SDS011;24099;47.102;15.440;2023-02-28T01:11:57;1.17;;;1.08;;
3667;SDS011;24099;47.102;15.440;2023-02-28T01:14:28;3.38;;;1.73;;
3667;SDS011;24099;47.102;15.440;2023-02-28T01:16:56;1.27;;;0.93;;
3667;SDS011;24099;47.102;15.440;2023-02-28T01:19:26;1.05;;;1.05;;
3667;SDS011;24099;47.102;15.440;2023-02-28T01:21:55;1.88;;;1.30;;
3667;SDS011;24099;47.102;15.440;2023-02-28T01:24:23;0.93;;;0.90;;
3667;SDS011;24099;47.102;15.440;2023-02-28T01:26:51;1.85;;;1.27;;
3667;SDS011;24099;47.102;15.440;2023-02-28T01:29:20;1.42;;;1.33;;
3667;SDS011;24099;47.102;15.440;2023-02-28T01:31:48;1.10;;;1.00;;
3667;SDS011;24099;47.102;15.440;2023-02-28T01:34:17;1.38;;;1.27;;
3667;SDS011;24099;47.102;15.440;2023-02-28T01:36:45;2.92;;;1.67;;
3667;SDS011;24099;47.102;15.440;2023-02-28T01:39:16;1.15;;;0.88;;
3667;SDS011;24099;47.102;15.440;2023-02-28T01:41:44;1.23;;;1.13;;
3667;SDS011;24099;47.102;15.440;2023-02-28T01:47:17;0.90;;;0.90;;
3667;SDS011;24099;47.102;15.440;2023-02-28T01:49:45;2.58;;;1.40;;
3667;SDS011;24099;47.102;15.440;2023-02-28T01:52:14;7.13;;;1.58;;
3667;SDS011;24099;47.102;15.440;2023-02-28T01:54:45;0.70;;;0.70;;
3667;SDS011;24099;47.102;15.440;2023-02-28T01:57:18;1.27;;;1.05;;
3667;SDS011;24099;47.102;15.440;2023-02-28T01:59:55;0.98;;;0.88;;
3667;SDS011;24099;47.102;15.440;2023-02-28T02:02:38;1.85;;;1.17;;
3667;SDS011;24099;47.102;15.440;2023-02-28T02:05:09;1.77;;;1.13;;
3667;SDS011;24099;47.102;15.440;2023-02-28T02:07:39;1.20;;;0.85;;
3667;SDS011;24099;47.102;15.440;2023-02-28T02:10:12;1.20;;;1.10;;
3667;SDS011;24099;47.102;15.440;2023-02-28T02:12:52;1.65;;;1.08;;
3667;SDS011;24099;47.102;15.440;2023-02-28T02:15:33;1.63;;;1.20;;
3667;SDS011;24099;47.102;15.440;2023-02-28T02:18:11;1.42;;;1.33;;
3667;SDS011;24099;47.102;15.440;2023-02-28T02:27:27;3.10;;;1.35;;
3667;SDS011;24099;47.102;15.440;2023-02-28T02:30:29;3.22;;;1.58;;
3667;SDS011;24099;47.102;15.440;2023-02-28T02:33:26;1.92;;;1.05;;
3667;SDS011;24099;47.102;15.440;2023-02-28T02:36:14;1.33;;;1.02;;
3667;SDS011;24099;47.102;15.440;2023-02-28T02:38:52;1.52;;;1.08;;
3667;SDS011;24099;47.102;15.440;2023-02-28T02:41:27;1.58;;;1.35;;
3667;SDS011;24099;47.102;15.440;2023-02-28T02:44:05;2.70;;;1.17;;
3667;SDS011;24099;47.102;15.440;2023-02-28T02:46:41;1.92;;;1.00;;
3667;SDS011;24099;47.102;15.440;2023-02-28T02:49:12;1.13;;;1.02;;
3667;SDS011;24099;47.102;15.440;2023-02-28T02:51:47;1.25;;;1.00;;
3667;SDS011;24099;47.102;15.440;2023-02-28T02:54:17;1.65;;;1.10;;
3667;SDS011;24099;47.102;15.440;2023-02-28T02:56:49;2.15;;;1.00;;
3667;SDS011;24099;47.102;15.440;2023-02-28T02:59:21;2.17;;;1.15;;
3667;SDS011;24099;47.102;15.440;2023-02-28T03:01:51;1.55;;;1.45;;
3667;SDS011;24099;47.102;15.440;2023-02-28T03:04:22;1.08;;;0.95;;
3667;SDS011;24099;47.102;15.440;2023-02-28T03:06:54;1.90;;;1.67;;
3667;SDS011;24099;47.102;15.440;2023-02-28T03:09:22;0.82;;;0.82;;
3667;SDS011;24099;47.102;15.440;2023-02-28T03:11:52;1.17;;;1.08;;
3667;SDS011;24099;47.102;15.440;2023-02-28T03:14:25;1.55;;;1.17;;
3667;SDS011;24099;47.102;15.440;2023-02-28T03:17:08;0.73;;;0.73;;
3667;SDS011;24099;47.102;15.440;2023-02-28T03:19:55;1.30;;;1.00;;
3667;SDS011;24099;47.102;15.440;2023-02-28T03:22:40;1.20;;;1.20;;
3667;SDS011;24099;47.102;15.440;2023-02-28T03:25:17;0.82;;;0.70;;
3667;SDS011;24099;47.102;15.440;2023-02-28T03:27:57;0.70;;;0.70;;
3667;SDS011;24099;47.102;15.440;2023-02-28T03:30:35;1.23;;;1.13;;
3667;SDS011;24099;47.102;15.440;2023-02-28T03:33:09;1.15;;;0.80;;
3667;SDS011;24099;47.102;15.440;2023-02-28T03:35:42;1.33;;;1.25;;
3667;SDS011;24099;47.102;15.440;2023-02-28T03:38:18;1.42;;;1.30;;
3667;SDS011;24099;47.102;15.440;2023-02-28T03:40:50;1.35;;;1.13;;
3667;SDS011;24099;47.102;15.440;2023-02-28T03:43:25;1.08;;;1.00;;
3667;SDS011;24099;47.102;15.440;2023-02-28T03:45:57;1.15;;;1.10;;
3667;SDS011;24099;47.102;15.440;2023-02-28T03:48:32;1.10;;;1.00;;
3667;SDS011;24099;47.102;15.440;2023-02-28T03:51:05;1.20;;;1.20;;
3667;SDS011;24099;47.102;15.440;2023-02-28T03:53:39;1.35;;;1.00;;
3667;SDS011;24099;47.102;15.440;2023-02-28T03:56:12;1.33;;;1.20;;
3667;SDS011;24099;47.102;15.440;2023-02-28T03:58:47;0.77;;;0.77;;
3667;SDS011;24099;47.102;15.440;2023-02-28T04:03:50;1.75;;;1.40;;
3667;SDS011;24099;47.102;15.440;2023-02-28T04:06:19;1.02;;;0.98;;
3667;SDS011;24099;47.102;15.440;2023-02-28T04:08:50;2.92;;;1.27;;
3667;SDS011;24099;47.102;15.440;2023-02-28T04:11:22;1.38;;;1.15;;
3667;SDS011;24099;47.102;15.440;2023-02-28T04:13:54;0.85;;;0.85;;
3667;SDS011;24099;47.102;15.440;2023-02-28T04:16:24;2.33;;;1.65;;
3667;SDS011;24099;47.102;15.440;2023-02-28T04:18:55;1.40;;;1.30;;
3667;SDS011;24099;47.102;15.440;2023-02-28T04:21:28;1.75;;;1.20;;
3667;SDS011;24099;47.102;15.440;2023-02-28T04:23:58;0.90;;;0.90;;
3667;SDS011;24099;47.102;15.440;2023-02-28T04:26:27;0.95;;;0.95;;
3667;SDS011;24099;47.102;15.440;2023-02-28T04:28:57;1.23;;;1.10;;
3667;SDS011;24099;47.102;15.440;2023-02-28T04:31:26;1.08;;;0.68;;
3667;SDS011;24099;47.102;15.440;2023-02-28T04:33:54;1.73;;;1.10;;
3667;SDS011;24099;47.102;15.440;2023-02-28T04:36:22;1.15;;;1.10;;
3667;SDS011;24099;47.102;15.440;2023-02-28T04:38:53;1.60;;;1.33;;
3667;SDS011;24099;47.102;15.440;2023-02-28T04:41:23;2.35;;;1.70;;
3667;SDS011;24099;47.102;15.440;2023-02-28T04:43:53;2.03;;;1.30;;
3667;SDS011;24099;47.102;15.440;2023-02-28T04:46:24;1.08;;;1.00;;
3667;SDS011;24099;47.102;15.440;2023-02-28T04:48:51;1.95;;;1.63;;
3667;SDS011;24099;47.102;15.440;2023-02-28T04:51:22;1.02;;;1.00;;
3667;SDS011;24099;47.102;15.440;2023-02-28T04:53:50;1.40;;;1.30;;
3667;SDS011;24099;47.102;15.440;2023-02-28T04:56:18;1.00;;;0.90;;
3667;SDS011;24099;47.102;15.440;2023-02-28T04:58:48;1.15;;;0.90;;
3667;SDS011;24099;47.102;15.440;2023-02-28T05:01:17;1.50;;;1.27;;
3667;SDS011;24099;47.102;15.440;2023-02-28T05:03:47;3.17;;;1.45;;
3667;SDS011;24099;47.102;15.440;2023-02-28T05:06:15;0.85;;;0.85;;
3667;SDS011;24099;47.102;15.440;2023-02-28T05:08:46;1.80;;;1.30;;
3667;SDS011;24099;47.102;15.440;2023-02-28T05:11:16;1.83;;;1.10;;
3667;SDS011;24099;47.102;15.440;2023-02-28T05:13:49;1.95;;;1.45;;
3667;SDS011;24099;47.102;15.440;2023-02-28T05:16:17;1.42;;;1.33;;
3667;SDS011;24099;47.102;15.440;2023-02-28T05:18:46;1.70;;;1.33;;
3667;SDS011;24099;47.102;15.440;2023-02-28T05:21:38;1.45;;;1.35;;
3667;SDS011;24099;47.102;15.440;2023-02-28T05:24:10;2.08;;;1.45;;
3667;SDS011;24099;47.102;15.440;2023-02-28T05:26:39;1.00;;;1.00;;
3667;SDS011;24099;47.102;15.440;2023-02-28T05:29:09;2.10;;;1.23;;
3667;SDS011;24099;47.102;15.440;2023-02-28T05:31:40;1.13;;;1.08;;
3667;SDS011;24099;47.102;15.440;2023-02-28T05:34:08;1.90;;;1.35;;
3667;SDS011;24099;47.102;15.440;2023-02-28T05:36:40;2.60;;;1.00;;
3667;SDS011;24099;47.102;15.440;2023-02-28T05:39:14;1.73;;;1.63;;
3667;SDS011;24099;47.102;15.440;2023-02-28T05:41:52;2.88;;;1.67;;
3667;SDS011;24099;47.102;15.440;2023-02-28T05:44:24;1.67;;;1.55;;
3667;SDS011;24099;47.102;15.440;2023-02-28T05:46:52;1.67;;;1.42;;
3667;SDS011;24099;47.102;15.440;2023-02-28T05:49:19;2.00;;;1.40;;
3667;SDS011;24099;47.102;15.440;2023-02-28T05:51:47;5.10;;;1.60;;
3667;SDS011;24099;47.102;15.440;2023-02-28T05:54:15;1.52;;;1.38;;
3667;SDS011;24099;47.102;15.440;2023-02-28T05:56:43;1.38;;;1.27;;
3667;SDS011;24099;47.102;15.440;2023-02-28T05:59:14;5.85;;;1.60;;
3667;SDS011;24099;47.102;15.440;2023-02-28T06:01:44;2.03;;;1.60;;
3667;SDS011;24099;47.102;15.440;2023-02-28T06:04:14;4.93;;;2.15;;
3667;SDS011;24099;47.102;15.440;2023-02-28T06:06:47;1.67;;;1.13;;
3667;SDS011;24099;47.102;15.440;2023-02-28T06:09:18;2.55;;;1.48;;
3667;SDS011;24099;47.102;15.440;2023-02-28T06:11:46;1.50;;;1.15;;
3667;SDS011;24099;47.102;15.440;2023-02-28T06:14:15;2.47;;;1.70;;
3667;SDS011;24099;47.102;15.440;2023-02-28T06:16:46;1.80;;;1.70;;
3667;SDS011;24099;47.102;15.440;2023-02-28T06:19:15;5.05;;;2.00;;
3667;SDS011;24099;47.102;15.440;2023-02-28T06:21:48;3.13;;;1.85;;
3667;SDS011;24099;47.102;15.440;2023-02-28T06:24:25;1.55;;;1.45;;
3667;SDS011;24099;47.102;15.440;2023-02-28T06:26:54;2.60;;;1.90;;
3667;SDS011;24099;47.102;15.440;2023-02-28T06:29:24;2.63;;;1.75;;
3667;SDS011;24099;47.102;15.440;2023-02-28T06:31:53;2.53;;;1.50;;
3667;SDS011;24099;47.102;15.440;2023-02-28T06:34:24;3.97;;;2.05;;
3667;SDS011;24099;47.102;15.440;2023-02-28T06:36:59;2.90;;;2.22;;
3667;SDS011;24099;47.102;15.440;2023-02-28T06:39:30;2.15;;;1.65;;
3667;SDS011;24099;47.102;15.440;2023-02-28T06:41:58;2.78;;;2.22;;
3667;SDS011;24099;47.102;15.440;2023-02-28T06:44:28;2.67;;;2.03;;
3667;SDS011;24099;47.102;15.440;2023-02-28T06:47:01;2.03;;;1.60;;
3667;SDS011;24099;47.102;15.440;2023-02-28T06:49:31;2.28;;;1.70;;
3667;SDS011;24099;47.102;15.440;2023-02-28T06:52:14;3.13;;;2.33;;
3667;SDS011;24099;47.102;15.440;2023-02-28T06:54:42;3.22;;;1.80;;
3667;SDS011;24099;47.102;15.440;2023-02-28T06:57:10;2.95;;;1.95;;
3667;SDS011;24099;47.102;15.440;2023-02-28T06:59:38;3.08;;;1.98;;
3667;SDS011;24099;47.102;15.440;2023-02-28T07:02:07;4.88;;;1.83;;
3667;SDS011;24099;47.102;15.440;2023-02-28T07:04:38;1.85;;;1.70;;
3667;SDS011;24099;47.102;15.440;2023-02-28T07:07:09;4.47;;;2.00;;
3667;SDS011;24099;47.102;15.440;2023-02-28T07:09:37;3.10;;;2.17;;
3667;SDS011;24099;47.102;15.440;2023-02-28T07:12:05;5.88;;;2.30;;
3667;SDS011;24099;47.102;15.440;2023-02-28T07:14:41;4.55;;;1.63;;
3667;SDS011;24099;47.102;15.440;2023-02-28T07:17:10;3.90;;;1.73;;
3667;SDS011;24099;47.102;15.440;2023-02-28T07:19:38;1.92;;;1.73;;
3667;SDS011;24099;47.102;15.440;2023-02-28T07:22:06;1.90;;;1.80;;
3667;SDS011;24099;47.102;15.440;2023-02-28T07:24:35;2.28;;;1.50;;
3667;SDS011;24099;47.102;15.440;2023-02-28T07:27:03;4.20;;;2.13;;
3667;SDS011;24099;47.102;15.440;2023-02-28T07:29:37;2.40;;;1.95;;
3667;SDS011;24099;47.102;15.440;2023-02-28T07:32:05;3.80;;;1.70;;
3667;SDS011;24099;47.102;15.440;2023-02-28T07:34:55;8.52;;;1.95;;
3667;SDS011;24099;47.102;15.440;2023-02-28T07:37:23;2.65;;;1.70;;
3667;SDS011;24099;47.102;15.440;2023-02-28T07:39:51;3.97;;;2.97;;
3667;SDS011;24099;47.102;15.440;2023-02-28T07:42:20;2.78;;;2.10;;
3667;SDS011;24099;47.102;15.440;2023-02-28T07:44:56;2.38;;;2.00;;
3667;SDS011;24099;47.102;15.440;2023-02-28T07:47:27;2.58;;;2.00;;
3667;SDS011;24099;47.102;15.440;2023-02-28T07:49:56;4.22;;;2.00;;
3667;SDS011;24099;47.102;15.440;2023-02-28T07:52:24;3.60;;;2.20;;
3667;SDS011;24099;47.102;15.440;2023-02-28T07:54:52;14.80;;;2.40;;
3667;SDS011;24099;47.102;15.440;2023-02-28T07:57:23;2.90;;;1.80;;
3667;SDS011;24099;47.102;15.440;2023-02-28T07:59:51;5.05;;;2.17;;
3667;SDS011;24099;47.102;15.440;2023-02-28T08:02:19;2.35;;;2.10;;
3667;SDS011;24099;47.102;15.440;2023-02-28T08:04:52;2.85;;;2.22;;
3667;SDS011;24099;47.102;15.440;2023-02-28T08:07:21;4.10;;;2.08;;
3667;SDS011;24099;47.102;15.440;2023-02-28T08:09:49;3.30;;;2.25;;
3667;SDS011;24099;47.102;15.440;2023-02-28T08:12:17;3.60;;;2.33;;
3667;SDS011;24099;47.102;15.440;2023-02-28T08:14:45;4.20;;;2.17;;
3667;SDS011;24099;47.102;15.440;2023-02-28T08:17:13;2.72;;;2.00;;
3667;SDS011;24099;47.102;15.440;2023-02-28T08:19:45;3.03;;;2.50;;
3667;SDS011;24099;47.102;15.440;2023-02-28T08:22:16;4.85;;;1.65;;
3667;SDS011;24099;47.102;15.440;2023-02-28T08:25:09;2.42;;;1.50;;
3667;SDS011;24099;47.102;15.440;2023-02-28T08:27:38;3.65;;;2.20;;
3667;SDS011;24099;47.102;15.440;2023-02-28T08:30:07;3.25;;;2.28;;
3667;SDS011;24099;47.102;15.440;2023-02-28T08:32:37;4.15;;;1.67;;
3667;SDS011;24099;47.102;15.440;2023-02-28T08:35:05;2.80;;;1.60;;
3667;SDS011;24099;47.102;15.440;2023-02-28T08:37:41;2.42;;;2.15;;
3667;SDS011;24099;47.102;15.440;2023-02-28T08:40:09;3.67;;;2.28;;
3667;SDS011;24099;47.102;15.440;2023-02-28T08:42:43;7.65;;;1.88;;
3667;SDS011;24099;47.102;15.440;2023-02-28T08:45:11;5.70;;;2.53;;
3667;SDS011;24099;47.102;15.440;2023-02-28T08:47:39;3.47;;;2.35;;
3667;SDS011;24099;47.102;15.440;2023-02-28T08:50:13;3.67;;;2.20;;
3667;SDS011;24099;47.102;15.440;2023-02-28T08:52:45;4.45;;;2.10;;
3667;SDS011;24099;47.102;15.440;2023-02-28T08:55:13;2.65;;;2.03;;
3667;SDS011;24099;47.102;15.440;2023-02-28T08:57:44;4.30;;;2.20;;
3667;SDS011;24099;47.102;15.440;2023-02-28T09:00:12;2.58;;;1.90;;
3667;SDS011;24099;47.102;15.440;2023-02-28T09:02:40;2.53;;;1.95;;
3667;SDS011;24099;47.102;15.440;2023-02-28T09:05:14;3.90;;;2.28;;
3667;SDS011;24099;47.102;15.440;2023-02-28T09:07:42;2.70;;;2.25;;
3667;SDS011;24099;47.102;15.440;2023-02-28T09:10:12;9.50;;;2.60;;
3667;SDS011;24099;47.102;15.440;2023-02-28T09:12:42;3.25;;;2.28;;
3667;SDS011;24099;47.102;15.440;2023-02-28T09:15:13;2.97;;;2.20;;
3667;SDS011;24099;47.102;15.440;2023-02-28T09:17:41;6.28;;;3.15;;
3667;SDS011;24099;47.102;15.440;2023-02-28T09:20:09;4.88;;;2.60;;
3667;SDS011;24099;47.102;15.440;2023-02-28T09:22:38;6.03;;;2.47;;
3667;SDS011;24099;47.102;15.440;2023-02-28T09:25:09;6.57;;;2.70;;
3667;SDS011;24099;47.102;15.440;2023-02-28T09:27:39;2.60;;;2.13;;
3667;SDS011;24099;47.102;15.440;2023-02-28T09:30:07;6.75;;;2.60;;
3667;SDS011;24099;47.102;15.440;2023-02-28T09:32:59;5.20;;;2.35;;
3667;SDS011;24099;47.102;15.440;2023-02-28T09:35:27;5.78;;;2.55;;
3667;SDS011;24099;47.102;15.440;2023-02-28T09:37:58;8.60;;;2.90;;
3667;SDS011;24099;47.102;15.440;2023-02-28T09:40:30;5.38;;;2.95;;
3667;SDS011;24099;47.102;15.440;2023-02-28T09:42:58;3.72;;;2.25;;
3667;SDS011;24099;47.102;15.440;2023-02-28T09:45:33;4.95;;;2.78;;
3667;SDS011;24099;47.102;15.440;2023-02-28T09:48:16;3.95;;;2.22;;
3667;SDS011;24099;47.102;15.440;2023-02-28T09:50:49;3.20;;;2.35;;
3667;SDS011;24099;47.102;15.440;2023-02-28T09:53:19;4.20;;;2.55;;
3667;SDS011;24099;47.102;15.440;2023-02-28T09:55:55;6.03;;;2.60;;
3667;SDS011;24099;47.102;15.440;2023-02-28T09:58:26;5.25;;;2.50;;
3667;SDS011;24099;47.102;15.440;2023-02-28T10:01:03;3.17;;;2.25;;
3667;SDS011;24099;47.102;15.440;2023-02-28T10:06:07;2.90;;;2.20;;
3667;SDS011;24099;47.102;15.440;2023-02-28T10:08:45;2.88;;;2.50;;
3667;SDS011;24099;47.102;15.440;2023-02-28T10:11:20;4.30;;;2.05;;
3667;SDS011;24099;47.102;15.440;2023-02-28T10:13:51;5.70;;;2.75;;
3667;SDS011;24099;47.102;15.440;2023-02-28T10:16:28;5.57;;;3.05;;
3667;SDS011;24099;47.102;15.440;2023-02-28T10:19:02;4.05;;;2.45;;
3667;SDS011;24099;47.102;15.440;2023-02-28T10:21:35;3.35;;;1.85;;
3667;SDS011;24099;47.102;15.440;2023-02-28T10:24:12;6.43;;;3.03;;
3667;SDS011;24099;47.102;15.440;2023-02-28T10:26:48;4.90;;;2.88;;
3667;SDS011;24099;47.102;15.440;2023-02-28T10:29:21;7.35;;;2.63;;
3667;SDS011;24099;47.102;15.440;2023-02-28T10:31:49;8.00;;;2.95;;
3667;SDS011;24099;47.102;15.440;2023-02-28T10:34:22;7.95;;;2.65;;
3667;SDS011;24099;47.102;15.440;2023-02-28T10:36:51;4.65;;;2.83;;
3667;SDS011;24099;47.102;15.440;2023-02-28T10:39:36;8.27;;;3.55;;
3667;SDS011;24099;47.102;15.440;2023-02-28T10:42:19;6.53;;;2.25;;
3667;SDS011;24099;47.102;15.440;2023-02-28T10:45:10;8.70;;;3.03;;
3667;SDS011;24099;47.102;15.440;2023-02-28T10:47:41;4.63;;;2.85;;
3667;SDS011;24099;47.102;15.440;2023-02-28T10:50:28;4.03;;;2.47;;
3667;SDS011;24099;47.102;15.440;2023-02-28T10:55:58;5.93;;;2.92;;
3667;SDS011;24099;47.102;15.440;2023-02-28T10:58:30;5.80;;;3.17;;
3667;SDS011;24099;47.102;15.440;2023-02-28T11:01:12;6.97;;;3.03;;
3667;SDS011;24099;47.102;15.440;2023-02-28T11:03:49;5.10;;;2.53;;
3667;SDS011;24099;47.102;15.440;2023-02-28T11:06:18;4.88;;;2.60;;
3667;SDS011;24099;47.102;15.440;2023-02-28T11:08:52;5.35;;;2.92;;
3667;SDS011;24099;47.102;15.440;2023-02-28T11:11:23;6.10;;;2.92;;
3667;SDS011;24099;47.102;15.440;2023-02-28T11:14:02;4.45;;;2.65;;
3667;SDS011;24099;47.102;15.440;2023-02-28T11:16:35;6.55;;;3.03;;
3667;SDS011;24099;47.102;15.440;2023-02-28T11:19:06;5.30;;;3.17;;
3667;SDS011;24099;47.102;15.440;2023-02-28T11:21:52;4.07;;;2.55;;
3667;SDS011;24099;47.102;15.440;2023-02-28T11:24:24;8.18;;;3.10;;
3667;SDS011;24099;47.102;15.440;2023-02-28T11:26:55;6.57;;;3.00;;
3667;SDS011;24099;47.102;15.440;2023-02-28T11:29:25;7.22;;;2.85;;
3667;SDS011;24099;47.102;15.440;2023-02-28T11:34:58;3.90;;;2.45;;
3667;SDS011;24099;47.102;15.440;2023-02-28T11:37:29;7.82;;;3.85;;
3667;SDS011;24099;47.102;15.440;2023-02-28T11:40:02;8.90;;;3.83;;
3667;SDS011;24099;47.102;15.440;2023-02-28T11:42:36;5.47;;;3.08;;
3667;SDS011;24099;47.102;15.440;2023-02-28T11:45:21;7.47;;;2.80;;
3667;SDS011;24099;47.102;15.440;2023-02-28T11:48:01;7.22;;;3.03;;
3667;SDS011;24099;47.102;15.440;2023-02-28T11:50:57;8.32;;;3.50;;
3667;SDS011;24099;47.102;15.440;2023-02-28T11:53:40;5.93;;;3.10;;
3667;SDS011;24099;47.102;15.440;2023-02-28T11:58:53;8.20;;;3.47;;
3667;SDS011;24099;47.102;15.440;2023-02-28T12:04:38;9.35;;;3.45;;
3667;SDS011;24099;47.102;15.440;2023-02-28T12:07:22;12.65;;;3.53;;
3667;SDS011;24099;47.102;15.440;2023-02-28T12:12:37;3.87;;;2.37;;
3667;SDS011;24099;47.102;15.440;2023-02-28T12:15:26;7.13;;;3.67;;
3667;SDS011;24099;47.102;15.440;2023-02-28T12:18:19;5.22;;;2.40;;
3667;SDS011;24099;47.102;15.440;2023-02-28T12:21:08;7.45;;;3.50;;
3667;SDS011;24099;47.102;15.440;2023-02-28T12:23:47;5.65;;;2.95;;
3667;SDS011;24099;47.102;15.440;2023-02-28T12:26:36;5.32;;;3.17;;
3667;SDS011;24099;47.102;15.440;2023-02-28T12:29:10;6.80;;;3.20;;
3667;SDS011;24099;47.102;15.440;2023-02-28T12:31:41;9.60;;;3.53;;
3667;SDS011;24099;47.102;15.440;2023-02-28T12:34:18;6.57;;;3.30;;
3667;SDS011;24099;47.102;15.440;2023-02-28T12:36:51;7.45;;;3.40;;
3667;SDS011;24099;47.102;15.440;2023-02-28T12:39:45;7.88;;;3.30;;
3667;SDS011;24099;47.102;15.440;2023-02-28T12:42:19;8.40;;;3.13;;
3667;SDS011;24099;47.102;15.440;2023-02-28T12:44:54;6.68;;;3.42;;
3667;SDS011;24099;47.102;15.440;2023-02-28T12:47:25;6.40;;;3.15;;
3667;SDS011;24099;47.102;15.440;2023-02-28T12:49:56;6.43;;;3.85;;
3667;SDS011;24099;47.102;15.440;2023-02-28T12:52:29;6.80;;;3.17;;
3667;SDS011;24099;47.102;15.440;2023-02-28T12:55:08;4.90;;;3.25;;
3667;SDS011;24099;47.102;15.440;2023-02-28T12:57:47;6.00;;;3.72;;
3667;SDS011;24099;47.102;15.440;2023-02-28T13:00:22;6.10;;;3.30;;
3667;SDS011;24099;47.102;15.440;2023-02-28T13:09:13;6.47;;;3.60;;
3667;SDS011;24099;47.102;15.440;2023-02-28T13:11:54;8.02;;;3.50;;
3667;SDS011;24099;47.102;15.440;2023-02-28T13:14:24;16.67;;;3.75;;
3667;SDS011;24099;47.102;15.440;2023-02-28T13:16:56;7.10;;;3.05;;
3667;SDS011;24099;47.102;15.440;2023-02-28T13:19:28;6.40;;;3.50;;
3667;SDS011;24099;47.102;15.440;2023-02-28T13:21:59;5.93;;;3.47;;
3667;SDS011;24099;47.102;15.440;2023-02-28T13:24:44;6.15;;;3.28;;
3667;SDS011;24099;47.102;15.440;2023-02-28T13:27:25;6.00;;;3.03;;
3667;SDS011;24099;47.102;15.440;2023-02-28T13:33:24;7.30;;;3.55;;
3667;SDS011;24099;47.102;15.440;2023-02-28T13:36:01;7.28;;;3.78;;
3667;SDS011;24099;47.102;15.440;2023-02-28T13:38:37;5.88;;;3.20;;
3667;SDS011;24099;47.102;15.440;2023-02-28T13:44:14;5.82;;;3.22;;
3667;SDS011;24099;47.102;15.440;2023-02-28T13:49:50;6.50;;;2.58;;
3667;SDS011;24099;47.102;15.440;2023-02-28T13:52:22;10.57;;;3.97;;
3667;SDS011;24099;47.102;15.440;2023-02-28T13:54:57;7.68;;;2.90;;
3667;SDS011;24099;47.102;15.440;2023-02-28T13:57:47;6.50;;;3.83;;
3667;SDS011;24099;47.102;15.440;2023-02-28T14:00:27;8.10;;;3.83;;
3667;SDS011;24099;47.102;15.440;2023-02-28T14:03:19;6.63;;;3.28;;
3667;SDS011;24099;47.102;15.440;2023-02-28T14:06:15;7.55;;;3.25;;
3667;SDS011;24099;47.102;15.440;2023-02-28T14:08:51;6.82;;;3.30;;
3667;SDS011;24099;47.102;15.440;2023-02-28T14:11:45;12.35;;;4.55;;
3667;SDS011;24099;47.102;15.440;2023-02-28T14:17:26;8.23;;;3.80;;
3667;SDS011;24099;47.102;15.440;2023-02-28T14:19:54;7.50;;;3.92;;
3667;SDS011;24099;47.102;15.440;2023-02-28T14:22:34;6.80;;;3.95;;
3667;SDS011;24099;47.102;15.440;2023-02-28T14:25:23;4.38;;;2.70;;
3667;SDS011;24099;47.102;15.440;2023-02-28T14:28:04;7.40;;;3.58;;
3667;SDS011;24099;47.102;15.440;2023-02-28T14:31:00;8.13;;;3.88;;
3667;SDS011;24099;47.102;15.440;2023-02-28T14:36:31;5.70;;;3.10;;
3667;SDS011;24099;47.102;15.440;2023-02-28T14:39:05;8.60;;;3.72;;
3667;SDS011;24099;47.102;15.440;2023-02-28T14:41:37;5.38;;;3.03;;
3667;SDS011;24099;47.102;15.440;2023-02-28T14:44:15;7.75;;;3.60;;
3667;SDS011;24099;47.102;15.440;2023-02-28T14:46:45;6.13;;;3.63;;
3667;SDS011;24099;47.102;15.440;2023-02-28T14:49:16;7.10;;;3.17;;
3667;SDS011;24099;47.102;15.440;2023-02-28T14:51:47;7.50;;;2.83;;
3667;SDS011;24099;47.102;15.440;2023-02-28T14:54:27;8.93;;;3.67;;
3667;SDS011;24099;47.102;15.440;2023-02-28T14:56:56;6.63;;;3.05;;
3667;SDS011;24099;47.102;15.440;2023-02-28T14:59:27;6.82;;;3.45;;
3667;SDS011;24099;47.102;15.440;2023-02-28T15:02:15;6.70;;;3.67;;
3667;SDS011;24099;47.102;15.440;2023-02-28T15:04:54;8.35;;;3.70;;
3667;SDS011;24099;47.102;15.440;2023-02-28T15:07:23;10.52;;;3.50;;
3667;SDS011;24099;47.102;15.440;2023-02-28T15:10:08;5.53;;;3.20;;
3667;SDS011;24099;47.102;15.440;2023-02-28T15:12:39;7.25;;;3.60;;
3667;SDS011;24099;47.102;15.440;2023-02-28T15:15:20;5.85;;;3.22;;
3667;SDS011;24099;47.102;15.440;2023-02-28T15:17:56;12.32;;;3.28;;
3667;SDS011;24099;47.102;15.440;2023-02-28T15:20:26;6.18;;;3.35;;
3667;SDS011;24099;47.102;15.440;2023-02-28T15:22:54;5.70;;;3.28;;
3667;SDS011;24099;47.102;15.440;2023-02-28T15:25:23;6.03;;;2.85;;
3667;SDS011;24099;47.102;15.440;2023-02-28T15:27:52;8.30;;;3.05;;
3667;SDS011;24099;47.102;15.440;2023-02-28T15:30:25;7.47;;;3.33;;
3667;SDS011;24099;47.102;15.440;2023-02-28T15:33:17;6.63;;;3.05;;
3667;SDS011;24099;47.102;15.440;2023-02-28T15:35:46;8.77;;;3.88;;
3667;SDS011;24099;47.102;15.440;2023-02-28T15:38:18;5.95;;;3.42;;
3667;SDS011;24099;47.102;15.440;2023-02-28T15:40:50;7.07;;;2.92;;
3667;SDS011;24099;47.102;15.440;2023-02-28T15:43:25;5.93;;;3.40;;
3667;SDS011;24099;47.102;15.440;2023-02-28T15:45:59;7.05;;;3.58;;
3667;SDS011;24099;47.102;15.440;2023-02-28T15:48:29;5.45;;;3.40;;
3667;SDS011;24099;47.102;15.440;2023-02-28T15:51:02;6.55;;;3.38;;
3667;SDS011;24099;47.102;15.440;2023-02-28T15:53:36;14.25;;;3.55;;
3667;SDS011;24099;47.102;15.440;2023-02-28T15:56:19;8.70;;;3.13;;
3667;SDS011;24099;47.102;15.440;2023-02-28T15:58:50;12.10;;;3.88;;
3667;SDS011;24099;47.102;15.440;2023-02-28T16:01:23;5.68;;;3.10;;
3667;SDS011;24099;47.102;15.440;2023-02-28T16:03:56;6.30;;;3.25;;
3667;SDS011;24099;47.102;15.440;2023-02-28T16:06:32;8.05;;;3.10;;
3667;SDS011;24099;47.102;15.440;2023-02-28T16:09:09;5.72;;;3.03;;
3667;SDS011;24099;47.102;15.440;2023-02-28T16:11:39;7.07;;;3.40;;
3667;SDS011;24099;47.102;15.440;2023-02-28T16:14:13;6.90;;;3.50;;
3667;SDS011;24099;47.102;15.440;2023-02-28T16:16:47;5.90;;;3.50;;
3667;SDS011;24099;47.102;15.440;2023-02-28T16:19:17;12.77;;;3.42;;